SCKD weather

El Cardal Airport
Rio Bueno, Los Ríos Region, Chile

Public forecast

Using degrees Celsius for public forecast. Weather courtesy of forecast.io.

METAR (pilot weather report)

Report is more than 2 hours old.

Closest report is Cañal Bajo Carlos - Hott Siebert Airport, 19.2 nm (35.5 km) WSW. Retrieved 2019/05/25 22:00 UTC (5 hours ago):

SCJO 252200Z 00000KT 9999 BKN030 11/10 Q1012

TAF (pilot weather forecast)

Forecast is more than 12 hours old.

Closest forecast is Cañal Bajo Carlos - Hott Siebert Airport, 19.2 nm (35.5 km) WSW. Retrieved 2019/05/25 12:33 UTC (15 hours ago):

TAF SCJO 251114Z 2512/2524 VRB02KT 5000 -RA BKN005 OVC020 TN07/2512Z TX12/2519Z BECMG 2514/2516 9999 NSW BKN010 BKN040 BECMG 2516/2518 BKN020 BECMG 2520/2522 OVC010